Time;durP1;ratioP1;P1;durP2;ratioP2;P2;SDS_P1;SDS_P2;PMS_P1;PMS_P2;Temp;Humidity;BMP_temperature;BMP_pressure;BME280_temperature;BME280_humidity;BME280_pressure;Samples;Min_cycle;Max_cycle;Signal;HPM_P1;HPM_P2
2021/04/19 00:01:10;;;;;;;26.80;11.67;;;8.50;86.90;;;;;;5095141;28;20180;-86
2021/04/19 00:03:36;;;;;;;32.17;13.33;;;8.50;86.60;;;;;;5095454;28;20196;-86
2021/04/19 00:06:02;;;;;;;34.43;13.30;;;8.60;86.40;;;;;;5094386;28;20449;-86
2021/04/19 00:08:28;;;;;;;23.65;12.60;;;8.50;86.40;;;;;;5094984;28;20398;-86
2021/04/19 00:10:54;;;;;;;29.48;14.18;;;8.50;86.90;;;;;;5095480;28;20174;-86
2021/04/19 00:13:20;;;;;;;29.05;12.82;;;8.40;86.90;;;;;;5095155;28;20200;-86
2021/04/19 00:15:46;;;;;;;32.40;13.95;;;8.40;86.90;;;;;;5095274;28;20202;-86
2021/04/19 00:18:12;;;;;;;27.90;14.13;;;8.40;86.90;;;;;;5094726;28;20198;-86
2021/04/19 00:20:38;;;;;;;29.47;14.77;;;8.30;87.30;;;;;;5095402;28;20424;-86
2021/04/19 00:23:03;;;;;;;34.90;14.53;;;8.20;87.60;;;;;;5095373;28;20461;-86
2021/04/19 00:25:29;;;;;;;40.13;14.40;;;8.20;87.70;;;;;;5095331;28;20757;-86
2021/04/19 00:27:55;;;;;;;27.77;14.40;;;8.20;87.60;;;;;;5095122;28;20440;-86
2021/04/19 00:30:23;;;;;;;26.20;13.20;;;8.10;87.60;;;;;;5095731;28;20524;-86
2021/04/19 00:32:49;;;;;;;35.88;15.30;;;8.10;88.00;;;;;;5095307;28;20192;-86
2021/04/19 00:35:15;;;;;;;35.93;17.27;;;8.00;88.30;;;;;;5094677;28;20175;-86
2021/04/19 00:37:41;;;;;;;31.95;16.35;;;7.90;88.70;;;;;;5094656;28;20463;-86
2021/04/19 00:40:13;;;;;;;25.40;14.95;;;8.00;88.80;;;;;;5094453;28;20652;-85
2021/04/19 00:42:41;;;;;;;32.28;15.18;;;7.90;88.70;;;;;;5094495;28;20278;-86
2021/04/19 00:45:08;;;;;;;28.42;14.90;;;7.80;88.70;;;;;;5095062;28;20175;-84
2021/04/19 00:47:35;;;;;;;36.63;16.77;;;7.80;88.80;;;;;;5094474;28;20202;-85
2021/04/19 00:50:01;;;;;;;33.25;14.13;;;7.80;88.90;;;;;;5094049;28;20253;-84
2021/04/19 00:52:28;;;;;;;40.90;17.17;;;7.70;89.40;;;;;;5093780;28;20241;-84
2021/04/19 00:54:54;;;;;;;33.15;16.73;;;7.70;89.50;;;;;;5094589;28;20164;-84
2021/04/19 00:57:20;;;;;;;26.73;14.40;;;7.50;90.10;;;;;;5094568;28;20179;-84
2021/04/19 00:59:46;;;;;;;30.15;15.13;;;7.50;90.20;;;;;;5094817;28;20175;-84
2021/04/19 01:02:11;;;;;;;33.37;15.17;;;7.40;90.60;;;;;;5094656;28;20176;-84
2021/04/19 01:04:37;;;;;;;38.80;16.07;;;7.40;90.80;;;;;;5095091;28;20433;-84
2021/04/19 01:07:03;;;;;;;36.20;17.63;;;7.50;90.50;;;;;;5094133;28;20203;-84
2021/04/19 01:09:28;;;;;;;26.63;14.37;;;7.50;90.50;;;;;;5094532;28;20242;-84
2021/04/19 01:11:54;;;;;;;41.00;15.67;;;7.50;90.60;;;;;;5094449;28;20172;-84
2021/04/19 01:14:20;;;;;;;38.20;16.80;;;7.50;90.80;;;;;;5094962;28;20244;-84
2021/04/19 01:16:46;;;;;;;28.23;16.33;;;7.50;90.80;;;;;;5093594;28;20175;-84
2021/04/19 01:19:12;;;;;;;26.83;14.73;;;7.50;90.60;;;;;;5094127;28;20203;-83
2021/04/19 01:21:38;;;;;;;33.75;16.73;;;7.50;90.60;;;;;;5094009;28;20183;-87
2021/04/19 01:24:04;;;;;;;33.30;15.30;;;7.50;90.60;;;;;;5093376;28;20198;-86
2021/04/19 01:26:30;;;;;;;27.15;14.63;;;7.60;90.50;;;;;;5093319;28;20560;-86
2021/04/19 01:28:56;;;;;;;31.40;15.53;;;7.50;90.50;;;;;;5093524;28;20188;-86
2021/04/19 01:31:21;;;;;;;27.27;14.73;;;7.50;90.40;;;;;;5093337;28;20425;-86
2021/04/19 01:33:47;;;;;;;29.83;13.33;;;7.60;90.50;;;;;;5094064;28;20187;-86
2021/04/19 01:36:13;;;;;;;32.17;15.43;;;7.60;90.60;;;;;;5093883;28;20820;-86
2021/04/19 01:38:39;;;;;;;28.87;14.10;;;7.60;90.30;;;;;;5093922;28;20183;-86
2021/04/19 01:41:05;;;;;;;30.93;14.47;;;7.60;90.20;;;;;;5094027;28;20409;-86
2021/04/19 01:43:31;;;;;;;29.27;15.02;;;7.70;89.90;;;;;;5093880;28;21008;-86
2021/04/19 01:45:57;;;;;;;32.97;16.90;;;7.70;89.90;;;;;;5093421;28;20210;-86
2021/04/19 01:48:24;;;;;;;38.93;14.20;;;7.70;89.90;;;;;;5093719;28;20773;-86
2021/04/19 01:50:51;;;;;;;27.17;14.43;;;7.70;89.80;;;;;;5093678;28;20504;-86
2021/04/19 01:53:18;;;;;;;31.48;14.48;;;7.70;89.50;;;;;;5093588;28;20195;-86
2021/04/19 01:55:44;;;;;;;32.05;14.98;;;7.70;90.10;;;;;;5093814;28;20199;-86
2021/04/19 01:58:16;;;;;;;31.48;14.75;;;7.70;89.60;;;;;;5093550;28;20179;-86
2021/04/19 02:00:47;;;;;;;30.60;16.15;;;7.70;89.90;;;;;;5092549;28;20522;-85
2021/04/19 02:03:44;;;;;;;26.70;14.65;;;7.60;90.10;;;;;;5092325;28;20221;-86
2021/04/19 02:06:21;;;;;;;32.90;14.80;;;7.70;90.10;;;;;;5092297;28;20207;-86
2021/04/19 02:08:58;;;;;;;27.80;13.73;;;7.70;89.90;;;;;;5092246;28;20151;-86
2021/04/19 02:11:27;;;;;;;31.42;14.90;;;7.70;89.60;;;;;;5092391;28;20233;-85
2021/04/19 02:14:08;;;;;;;37.67;14.98;;;7.70;89.90;;;;;;5092045;28;20286;-85
2021/04/19 02:16:54;;;;;;;35.10;14.40;;;7.70;90.10;;;;;;5092321;28;20186;-86
2021/04/19 02:19:48;;;;;;;34.70;14.07;;;7.70;90.10;;;;;;5092111;28;20165;-86
2021/04/19 02:22:26;;;;;;;29.45;15.93;;;7.70;90.10;;;;;;5091744;28;20161;-86
2021/04/19 02:25:06;;;;;;;36.25;16.63;;;7.70;90.20;;;;;;5091689;28;20191;-86
2021/04/19 02:27:38;;;;;;;31.45;15.32;;;7.70;90.10;;;;;;5092968;28;20187;-86
2021/04/19 02:30:11;;;;;;;34.92;14.70;;;7.70;90.10;;;;;;5095646;28;20157;-86
2021/04/19 02:32:40;;;;;;;30.20;15.38;;;7.70;90.20;;;;;;5095442;28;20192;-86
2021/04/19 02:35:11;;;;;;;27.00;16.08;;;7.70;89.90;;;;;;5095530;28;20183;-86
2021/04/19 02:37:38;;;;;;;31.63;16.25;;;7.70;90.10;;;;;;5095500;28;20217;-86
2021/04/19 02:40:07;;;;;;;50.55;16.40;;;7.60;90.20;;;;;;5095869;28;20582;-86
2021/04/19 02:42:38;;;;;;;33.85;14.75;;;7.50;90.60;;;;;;5095776;28;20199;-86
2021/04/19 02:45:07;;;;;;;33.28;14.63;;;7.50;90.60;;;;;;5095738;28;20532;-86
2021/04/19 02:47:33;;;;;;;28.70;15.00;;;7.50;90.60;;;;;;5095463;28;20238;-86
2021/04/19 02:50:01;;;;;;;30.88;14.70;;;7.50;90.40;;;;;;5096784;28;20170;-86
2021/04/19 02:52:27;;;;;;;36.53;16.33;;;7.50;90.40;;;;;;5096492;28;20245;-86
2021/04/19 02:54:55;;;;;;;37.33;15.82;;;7.50;90.50;;;;;;5096742;28;20175;-86
2021/04/19 02:57:28;;;;;;;33.85;14.48;;;7.60;90.30;;;;;;5096915;28;20193;-86
2021/04/19 02:59:56;;;;;;;35.53;16.55;;;7.60;90.30;;;;;;5096302;28;20179;-86
2021/04/19 03:02:26;;;;;;;27.90;14.50;;;7.60;90.10;;;;;;5095967;28;20176;-86
2021/04/19 03:04:52;;;;;;;35.97;16.17;;;7.60;90.20;;;;;;5097261;28;20156;-86
2021/04/19 03:07:21;;;;;;;40.47;16.00;;;7.60;90.40;;;;;;5096147;28;20237;-87
2021/04/19 03:09:52;;;;;;;38.05;16.27;;;7.60;90.30;;;;;;5095722;28;20167;-86
2021/04/19 03:12:21;;;;;;;32.53;15.38;;;7.60;90.30;;;;;;5096072;28;20316;-86
2021/04/19 03:14:55;;;;;;;37.05;15.77;;;7.60;90.10;;;;;;5095384;28;20167;-86
2021/04/19 03:17:23;;;;;;;35.30;16.70;;;7.70;89.90;;;;;;5096046;28;20559;-85
2021/04/19 03:20:00;;;;;;;31.15;15.23;;;7.70;90.10;;;;;;5095722;28;20171;-86
2021/04/19 03:22:27;;;;;;;30.08;15.05;;;7.70;90.10;;;;;;5095909;28;20258;-86
2021/04/19 03:24:54;;;;;;;30.83;15.00;;;7.70;89.90;;;;;;5095985;28;20172;-86
2021/04/19 03:27:22;;;;;;;32.20;15.25;;;7.60;90.20;;;;;;5095986;28;20204;-86
2021/04/19 03:29:48;;;;;;;41.67;16.73;;;7.60;90.20;;;;;;5095895;28;20176;-86
2021/04/19 03:32:18;;;;;;;31.10;15.27;;;7.60;90.20;;;;;;5095665;28;20640;-86
2021/04/19 03:34:46;;;;;;;31.85;13.82;;;7.60;90.40;;;;;;5095872;28;20168;-86
2021/04/19 03:37:16;;;;;;;36.15;15.90;;;7.60;90.20;;;;;;5095443;28;20179;-86
2021/04/19 03:39:47;;;;;;;35.75;14.77;;;7.60;90.50;;;;;;5094101;28;20178;-86
2021/04/19 03:42:15;;;;;;;26.58;14.45;;;7.60;90.40;;;;;;5095078;28;20167;-86
2021/04/19 03:44:42;;;;;;;41.88;16.50;;;7.70;90.40;;;;;;5095225;28;20230;-85
2021/04/19 03:47:10;;;;;;;38.38;15.32;;;7.60;90.50;;;;;;5096234;28;20200;-86
2021/04/19 03:49:49;;;;;;;39.75;15.95;;;7.60;90.50;;;;;;5096194;28;20172;-86
2021/04/19 03:52:20;;;;;;;33.60;16.35;;;7.60;90.20;;;;;;5095980;28;20664;-85
2021/04/19 03:54:51;;;;;;;31.77;14.82;;;7.60;90.30;;;;;;5096500;28;20269;-85
2021/04/19 03:57:20;;;;;;;41.30;17.13;;;7.50;90.20;;;;;;5096018;28;20160;-85
2021/04/19 04:00:02;;;;;;;32.20;14.25;;;7.50;90.30;;;;;;5095512;28;20182;-85
2021/04/19 04:02:29;;;;;;;32.10;16.08;;;7.50;90.40;;;;;;5095455;28;20178;-86
2021/04/19 04:04:57;;;;;;;40.20;16.52;;;7.40;90.40;;;;;;5095789;28;20225;-85
2021/04/19 04:07:24;;;;;;;37.00;14.68;;;7.40;90.60;;;;;;5095150;28;20262;-85
2021/04/19 04:09:50;;;;;;;36.92;16.00;;;7.40;90.60;;;;;;5095898;28;20180;-85
2021/04/19 04:12:17;;;;;;;33.25;14.32;;;7.40;91.00;;;;;;5095197;28;20171;-85
2021/04/19 04:14:55;;;;;;;34.67;16.45;;;7.40;90.60;;;;;;5095707;28;20706;-85
2021/04/19 04:17:21;;;;;;;33.88;15.30;;;7.40;90.60;;;;;;5095393;28;20171;-85
2021/04/19 04:19:47;;;;;;;29.85;13.60;;;7.40;90.60;;;;;;5095172;28;20172;-85
2021/04/19 04:22:15;;;;;;;32.60;15.32;;;7.40;90.60;;;;;;5094536;28;20642;-85
2021/04/19 04:24:42;;;;;;;32.53;15.82;;;7.40;90.60;;;;;;5094670;28;20175;-85
2021/04/19 04:27:08;;;;;;;30.08;14.80;;;7.40;90.90;;;;;;5095283;28;20278;-85
2021/04/19 04:29:35;;;;;;;34.60;15.57;;;7.40;90.90;;;;;;5095589;28;20260;-85
2021/04/19 04:32:01;;;;;;;35.38;15.75;;;7.40;90.60;;;;;;5095112;28;20172;-85
2021/04/19 04:34:27;;;;;;;30.20;15.37;;;7.30;91.00;;;;;;5095396;28;20202;-85
2021/04/19 04:36:52;;;;;;;35.03;15.07;;;7.30;91.10;;;;;;5095402;28;20421;-85
2021/04/19 04:39:18;;;;;;;34.50;16.00;;;7.20;91.30;;;;;;5095274;28;20409;-85
2021/04/19 04:41:44;;;;;;;33.47;15.90;;;7.10;91.50;;;;;;5095636;28;20176;-86
2021/04/19 04:44:15;;;;;;;47.60;17.03;;;7.10;91.60;;;;;;5098569;28;20187;-84
2021/04/19 04:46:47;;;;;;;33.67;16.35;;;7.10;91.90;;;;;;5097930;28;20192;-85
2021/04/19 04:49:17;;;;;;;25.98;14.23;;;7.10;92.00;;;;;;5096728;28;20166;-85
2021/04/19 04:51:46;;;;;;;35.50;16.45;;;7.00;92.00;;;;;;5094367;28;20251;-85
2021/04/19 04:54:17;;;;;;;34.33;14.35;;;7.00;92.10;;;;;;5094949;28;20282;-86
2021/04/19 04:56:48;;;;;;;31.55;14.02;;;7.00;92.10;;;;;;5094459;28;20164;-85
2021/04/19 04:59:15;;;;;;;35.35;16.27;;;6.80;92.30;;;;;;5094943;28;20164;-85
2021/04/19 05:01:43;;;;;;;34.28;15.68;;;6.90;92.40;;;;;;5094916;28;20833;-85
2021/04/19 05:04:09;;;;;;;36.50;17.13;;;7.00;92.30;;;;;;5095976;28;20187;-85
2021/04/19 05:06:35;;;;;;;34.65;15.32;;;7.00;92.10;;;;;;5095379;28;20209;-85
2021/04/19 05:09:01;;;;;;;37.67;15.88;;;6.90;92.40;;;;;;5094611;28;20266;-85
2021/04/19 05:11:27;;;;;;;30.33;14.15;;;7.00;92.20;;;;;;5094598;28;20175;-85
2021/04/19 05:14:00;;;;;;;42.13;14.95;;;7.00;92.10;;;;;;5094421;28;20191;-85
2021/04/19 05:16:27;;;;;;;30.33;14.80;;;7.00;91.90;;;;;;5094779;28;20168;-85
2021/04/19 05:18:53;;;;;;;39.45;16.75;;;7.00;91.90;;;;;;5095053;28;20171;-85
2021/04/19 05:21:19;;;;;;;33.45;15.25;;;7.00;92.00;;;;;;5094681;28;20221;-85
2021/04/19 05:23:45;;;;;;;32.70;16.83;;;7.00;92.70;;;;;;5094262;28;20199;-85
2021/04/19 05:26:12;;;;;;;29.97;15.40;;;7.00;93.70;;;;;;5094004;28;20462;-85
2021/04/19 05:28:41;;;;;;;42.65;17.52;;;7.00;94.30;;;;;;5158319;22;20916;-80
2021/04/19 05:31:11;;;;;;;46.88;17.38;;;7.00;94.90;;;;;;5095886;28;20217;-80
2021/04/19 05:33:37;;;;;;;41.03;17.08;;;7.00;95.20;;;;;;5083995;28;20194;-80
2021/04/19 05:36:25;;;;;;;39.20;18.50;;;7.10;95.20;;;;;;5059039;28;20168;-80
2021/04/19 05:38:52;;;;;;;36.75;16.00;;;7.10;95.20;;;;;;5059866;28;20636;-80
2021/04/19 05:41:19;;;;;;;36.30;16.35;;;7.10;95.10;;;;;;5059052;28;20191;-80
2021/04/19 05:43:45;;;;;;;44.90;17.33;;;7.10;95.10;;;;;;5059037;28;20192;-81
2021/04/19 05:46:13;;;;;;;38.15;16.90;;;7.20;95.20;;;;;;5058592;28;20633;-80
2021/04/19 05:48:40;;;;;;;42.78;18.33;;;7.20;95.10;;;;;;5059011;28;20525;-81
2021/04/19 05:51:12;;;;;;;31.58;16.65;;;7.20;95.00;;;;;;5059356;28;20192;-81
2021/04/19 05:53:40;;;;;;;44.20;17.20;;;7.20;95.30;;;;;;5059595;28;20196;-80
2021/04/19 05:56:17;;;;;;;42.42;16.88;;;7.10;95.80;;;;;;5059477;28;20283;-81
2021/04/19 05:58:48;;;;;;;44.60;17.25;;;7.10;96.00;;;;;;5059686;28;20701;-81
2021/04/19 06:01:19;;;;;;;34.50;18.15;;;7.10;96.10;;;;;;5059470;28;20310;-81
2021/04/19 06:04:04;;;;;;;39.35;17.42;;;7.10;96.50;;;;;;5061563;28;20265;-80
2021/04/19 06:07:05;;;;;;;32.17;16.33;;;7.20;96.60;;;;;;5062495;28;20208;-81
2021/04/19 06:09:40;;;;;;;48.20;17.88;;;7.10;96.40;;;;;;5063558;28;20260;-80
2021/04/19 06:12:11;;;;;;;42.80;17.95;;;7.00;96.60;;;;;;5062764;28;20182;-81
2021/04/19 06:14:42;;;;;;;43.35;19.30;;;7.00;97.20;;;;;;5062510;28;20164;-81
2021/04/19 06:17:08;;;;;;;51.08;20.00;;;7.00;97.20;;;;;;5061920;28;20169;-81
2021/04/19 06:19:46;;;;;;;37.25;17.25;;;6.90;97.40;;;;;;5061657;28;20173;-81
2021/04/19 06:22:16;;;;;;;34.53;18.10;;;6.90;98.10;;;;;;5061687;28;20172;-81
2021/04/19 06:24:50;;;;;;;36.47;17.13;;;6.90;98.10;;;;;;5061749;28;20168;-81
2021/04/19 06:27:33;;;;;;;54.08;19.58;;;6.90;98.40;;;;;;5061861;28;20200;-81
2021/04/19 06:30:15;;;;;;;56.83;18.40;;;6.90;98.50;;;;;;5061252;28;20184;-81
2021/04/19 06:32:42;;;;;;;47.22;19.55;;;6.90;98.50;;;;;;5061498;28;20191;-81
2021/04/19 06:35:09;;;;;;;41.20;18.75;;;6.90;98.40;;;;;;5061718;28;20168;-81
2021/04/19 06:37:34;;;;;;;48.15;19.55;;;6.80;98.80;;;;;;5061697;28;20176;-81
2021/04/19 06:40:00;;;;;;;54.60;19.57;;;6.90;99.00;;;;;;5062586;28;20231;-81
2021/04/19 06:42:27;;;;;;;58.77;21.50;;;6.80;99.10;;;;;;5061395;28;20541;-81
2021/04/19 06:44:54;;;;;;;37.95;18.35;;;6.80;99.10;;;;;;5061932;28;20808;-81
2021/04/19 06:47:20;;;;;;;42.33;20.27;;;6.70;99.10;;;;;;5061357;28;20203;-81
2021/04/19 06:49:48;;;;;;;44.15;19.05;;;6.70;99.10;;;;;;5061582;28;20561;-81
2021/04/19 06:52:16;;;;;;;39.17;20.80;;;6.70;99.10;;;;;;5061745;28;20168;-81
2021/04/19 06:54:42;;;;;;;45.10;20.02;;;6.60;99.10;;;;;;5062061;28;20180;-81
2021/04/19 06:57:09;;;;;;;47.60;20.30;;;6.60;99.10;;;;;;5062098;28;20168;-81
2021/04/19 06:59:41;;;;;;;51.17;21.77;;;6.70;99.10;;;;;;5063601;28;20411;-81
2021/04/19 07:02:24;;;;;;;57.05;20.70;;;6.70;99.10;;;;;;5062955;28;20636;-81
2021/04/19 07:04:51;;;;;;;49.72;18.92;;;6.60;99.10;;;;;;5063178;28;20230;-80
2021/04/19 07:07:31;;;;;;;42.17;19.20;;;6.70;99.10;;;;;;5062314;28;20201;-81
2021/04/19 07:10:01;;;;;;;50.60;22.08;;;6.70;99.10;;;;;;5062602;28;20168;-81
2021/04/19 07:12:27;;;;;;;47.72;20.80;;;6.70;99.10;;;;;;5062046;28;20165;-81
2021/04/19 07:14:55;;;;;;;58.50;21.33;;;6.70;99.10;;;;;;5062330;28;20542;-81
2021/04/19 07:17:21;;;;;;;57.08;24.13;;;6.70;99.10;;;;;;5062487;28;20210;-81
2021/04/19 07:19:47;;;;;;;56.67;21.65;;;6.70;99.10;;;;;;5061975;28;20172;-81
2021/04/19 07:22:17;;;;;;;46.28;21.98;;;6.80;99.10;;;;;;5061996;28;20234;-81
2021/04/19 07:24:43;;;;;;;36.00;18.55;;;6.80;99.10;;;;;;5062025;28;20173;-81
2021/04/19 07:27:13;;;;;;;48.00;21.27;;;6.90;99.10;;;;;;5062369;28;20211;-81
2021/04/19 07:29:40;;;;;;;42.90;21.42;;;6.90;99.10;;;;;;5062141;28;20219;-81
2021/04/19 07:32:06;;;;;;;42.97;19.75;;;6.90;99.10;;;;;;5062212;28;20165;-81
2021/04/19 07:34:33;;;;;;;48.50;21.90;;;6.80;99.10;;;;;;5062549;28;20230;-81
2021/04/19 07:37:04;;;;;;;45.60;19.45;;;6.90;99.10;;;;;;5062764;28;20172;-81
2021/04/19 07:39:33;;;;;;;53.72;20.27;;;6.90;99.10;;;;;;5063285;28;20173;-81
2021/04/19 07:42:01;;;;;;;49.50;19.20;;;6.90;99.10;;;;;;5062642;28;20263;-81
2021/04/19 07:44:43;;;;;;;47.30;20.83;;;6.90;99.10;;;;;;5062504;28;20196;-81
2021/04/19 07:47:32;;;;;;;43.75;19.38;;;7.00;99.10;;;;;;5061792;28;20196;-81
2021/04/19 07:50:08;;;;;;;57.55;23.05;;;7.10;99.10;;;;;;5062934;28;20165;-81
2021/04/19 07:52:49;;;;;;;39.00;20.20;;;7.20;99.10;;;;;;5062186;28;20190;-81
2021/04/19 07:55:22;;;;;;;54.97;22.63;;;7.30;99.10;;;;;;5062807;28;20175;-81
2021/04/19 07:57:49;;;;;;;48.33;23.63;;;7.40;99.10;;;;;;5061905;28;20177;-82
2021/04/19 08:00:25;;;;;;;53.45;21.05;;;7.50;99.10;;;;;;5062286;28;20173;-81
2021/04/19 08:03:18;;;;;;;49.50;21.65;;;7.60;99.10;;;;;;5062141;28;20192;-81
2021/04/19 08:05:49;;;;;;;50.53;20.88;;;7.60;99.10;;;;;;5059972;28;20185;-81
2021/04/19 08:08:16;;;;;;;43.50;19.90;;;7.70;99.10;;;;;;5061944;28;20160;-81
2021/04/19 08:10:44;;;;;;;44.90;20.25;;;7.70;99.10;;;;;;5060948;28;20204;-81
2021/04/19 08:13:17;;;;;;;50.17;20.75;;;7.70;99.10;;;;;;5060880;28;20696;-81
2021/04/19 08:15:45;;;;;;;50.95;22.20;;;7.70;99.10;;;;;;5061661;28;20251;-81
2021/04/19 08:18:19;;;;;;;52.35;24.35;;;7.80;99.10;;;;;;5061187;28;20164;-81
2021/04/19 08:20:54;;;;;;;47.42;22.77;;;7.90;99.10;;;;;;5062065;28;20194;-81
2021/04/19 08:23:21;;;;;;;52.13;23.58;;;7.90;99.10;;;;;;5060026;28;20188;-81
2021/04/19 08:25:51;;;;;;;55.47;22.75;;;8.00;99.10;;;;;;5059766;28;20177;-82
2021/04/19 08:28:22;;;;;;;46.15;21.00;;;8.00;99.10;;;;;;5061584;28;20252;-81
2021/04/19 08:30:58;;;;;;;44.90;22.20;;;8.00;99.00;;;;;;5060800;28;20263;-81
2021/04/19 08:33:25;;;;;;;49.15;20.30;;;8.00;98.80;;;;;;5061164;28;20181;-81
2021/04/19 08:35:53;;;;;;;55.38;22.77;;;7.90;98.80;;;;;;5060940;28;20168;-82
2021/04/19 08:38:21;;;;;;;52.03;22.05;;;8.00;99.10;;;;;;5060605;28;20172;-81
2021/04/19 08:40:50;;;;;;;50.35;21.95;;;8.00;99.10;;;;;;5061171;28;20172;-82
2021/04/19 08:43:24;;;;;;;62.42;23.38;;;8.10;99.10;;;;;;5061481;28;20331;-81
2021/04/19 08:45:51;;;;;;;57.47;20.42;;;8.00;99.10;;;;;;5062039;28;20649;-81
2021/04/19 08:48:17;;;;;;;48.53;24.90;;;8.10;99.10;;;;;;5061822;28;20164;-81
2021/04/19 08:50:46;;;;;;;45.42;20.90;;;8.10;99.10;;;;;;5061510;28;20168;-81
2021/04/19 08:53:14;;;;;;;47.63;22.02;;;8.20;99.10;;;;;;5060280;28;20192;-81
2021/04/19 08:55:41;;;;;;;45.15;21.70;;;8.20;99.10;;;;;;5061194;28;20172;-82
2021/04/19 08:58:13;;;;;;;44.50;23.52;;;8.20;99.10;;;;;;5062463;28;20172;-82
2021/04/19 09:00:42;;;;;;;48.88;22.02;;;8.20;99.10;;;;;;5060834;28;20176;-81
2021/04/19 09:03:09;;;;;;;54.10;22.08;;;8.20;99.10;;;;;;5060590;28;20283;-81
2021/04/19 09:05:35;;;;;;;41.90;20.73;;;8.30;99.10;;;;;;5060352;28;20165;-81
2021/04/19 09:08:07;;;;;;;47.50;20.35;;;8.30;99.10;;;;;;5060810;28;20192;-81
2021/04/19 09:10:56;;;;;;;42.03;20.50;;;8.20;99.10;;;;;;5059810;28;20172;-81
2021/04/19 09:13:27;;;;;;;51.42;21.83;;;8.20;99.10;;;;;;5060052;28;20192;-81
2021/04/19 09:15:53;;;;;;;48.22;22.33;;;8.20;99.10;;;;;;5060721;28;20200;-82
2021/04/19 09:18:21;;;;;;;44.10;21.08;;;8.20;99.10;;;;;;5060956;28;20173;-81
2021/04/19 09:20:52;;;;;;;41.38;20.92;;;8.10;99.10;;;;;;5059651;28;20259;-80
2021/04/19 09:23:26;;;;;;;44.97;21.35;;;8.10;99.10;;;;;;5059053;28;20188;-82
2021/04/19 09:25:54;;;;;;;49.80;20.92;;;8.10;99.10;;;;;;5059892;28;20191;-82
2021/04/19 09:28:41;;;;;;;62.42;23.92;;;8.10;99.10;;;;;;5059829;28;20189;-82
2021/04/19 09:31:08;;;;;;;56.17;23.65;;;8.20;99.10;;;;;;5059891;28;20512;-82
2021/04/19 09:33:35;;;;;;;54.88;23.25;;;8.20;99.10;;;;;;5059258;28;20256;-81
2021/04/19 09:36:01;;;;;;;48.10;23.65;;;8.20;99.10;;;;;;5059300;28;20168;-82
2021/04/19 09:38:33;;;;;;;48.40;22.90;;;8.30;99.10;;;;;;5061492;28;20211;-81
2021/04/19 09:41:04;;;;;;;59.30;23.70;;;8.30;99.10;;;;;;5063104;28;20475;-82
2021/04/19 09:43:31;;;;;;;56.90;23.17;;;8.40;99.10;;;;;;5063420;28;20196;-81
2021/04/19 09:46:21;;;;;;;52.03;23.17;;;8.50;99.10;;;;;;5064071;28;20175;-81
2021/04/19 09:48:53;;;;;;;53.38;24.88;;;8.60;99.10;;;;;;5064735;28;20175;-81
2021/04/19 09:51:27;;;;;;;46.70;23.15;;;8.60;99.10;;;;;;5062794;28;20172;-81
2021/04/19 09:54:16;;;;;;;53.60;22.73;;;8.70;99.10;;;;;;5062782;28;20547;-81
2021/04/19 09:56:43;;;;;;;57.83;23.90;;;8.90;99.10;;;;;;5063536;28;20194;-81
2021/04/19 09:59:22;;;;;;;54.47;23.80;;;8.90;99.10;;;;;;5062739;28;20226;-81
2021/04/19 10:01:51;;;;;;;51.47;23.52;;;9.00;99.10;;;;;;5062649;28;20203;-81
2021/04/19 10:04:17;;;;;;;51.15;24.60;;;9.10;99.10;;;;;;5062547;28;20208;-80
2021/04/19 10:06:49;;;;;;;50.13;22.65;;;9.10;99.10;;;;;;5062344;28;20302;-81
2021/04/19 10:09:17;;;;;;;59.78;27.00;;;9.10;99.10;;;;;;5063445;28;20233;-81
2021/04/19 10:11:45;;;;;;;63.35;25.60;;;9.10;99.10;;;;;;5063311;28;20651;-81
2021/04/19 10:14:18;;;;;;;52.85;24.88;;;9.10;99.10;;;;;;5063158;28;20211;-81
2021/04/19 10:16:52;;;;;;;69.32;25.88;;;9.20;99.10;;;;;;5062797;28;20260;-81
2021/04/19 10:19:28;;;;;;;57.90;25.13;;;9.30;99.10;;;;;;5062922;28;20225;-81
2021/04/19 10:21:59;;;;;;;61.25;23.90;;;9.40;99.10;;;;;;5062836;28;20541;-82
2021/04/19 10:24:24;;;;;;;48.38;22.60;;;9.50;99.10;;;;;;5062549;28;20542;-82
2021/04/19 10:26:50;;;;;;;49.63;24.17;;;9.70;99.10;;;;;;5062826;28;20203;-82
2021/04/19 10:29:20;;;;;;;53.47;22.50;;;9.80;99.10;;;;;;5063069;28;20515;-82
2021/04/19 10:31:58;;;;;;;54.28;23.65;;;9.80;99.10;;;;;;5062278;28;20169;-82
2021/04/19 10:34:30;;;;;;;66.70;24.00;;;10.00;99.10;;;;;;5061979;28;20289;-82
2021/04/19 10:37:01;;;;;;;50.03;20.67;;;10.10;99.10;;;;;;5062123;28;20230;-81
2021/04/19 10:39:30;;;;;;;54.22;20.77;;;10.20;98.90;;;;;;5061844;28;20267;-82
2021/04/19 10:41:59;;;;;;;60.67;24.92;;;10.30;99.10;;;;;;5062252;28;20215;-82
2021/04/19 10:44:43;;;;;;;53.30;22.55;;;10.30;99.00;;;;;;5061552;28;20207;-82
2021/04/19 10:47:11;;;;;;;50.70;24.50;;;10.40;98.10;;;;;;5061453;28;20671;-82
2021/04/19 10:49:38;;;;;;;43.15;22.60;;;10.40;97.50;;;;;;5061009;28;20226;-82
2021/04/19 10:52:06;;;;;;;51.42;22.73;;;10.40;95.80;;;;;;5061361;28;20192;-82
2021/04/19 10:54:43;;;;;;;55.40;22.42;;;10.40;96.50;;;;;;5060957;28;20189;-82
2021/04/19 10:57:20;;;;;;;50.38;21.45;;;10.50;96.00;;;;;;5060684;28;20176;-82
2021/04/19 10:59:48;;;;;;;57.22;22.13;;;10.40;95.30;;;;;;5061510;28;20168;-81
2021/04/19 11:02:14;;;;;;;43.17;20.80;;;10.50;96.60;;;;;;5061593;28;20311;-81
2021/04/19 11:04:41;;;;;;;53.10;21.27;;;10.50;96.40;;;;;;5061388;28;20244;-81
2021/04/19 11:07:22;;;;;;;50.88;23.27;;;10.60;95.70;;;;;;5061355;28;20536;-82
2021/04/19 11:10:07;;;;;;;58.17;24.27;;;10.60;96.40;;;;;;5062547;28;20176;-82
2021/04/19 11:12:33;;;;;;;41.88;21.25;;;10.60;96.00;;;;;;5060595;28;20196;-82
2021/04/19 11:15:10;;;;;;;52.57;23.00;;;10.70;95.60;;;;;;5061343;28;20168;-82
2021/04/19 11:17:37;;;;;;;54.22;23.70;;;10.70;95.70;;;;;;5060931;28;20411;-81
2021/04/19 11:20:22;;;;;;;54.55;21.95;;;10.80;96.30;;;;;;5061134;28;20203;-82
2021/04/19 11:22:48;;;;;;;52.40;22.00;;;10.80;95.50;;;;;;5061063;28;20634;-82
2021/04/19 11:25:23;;;;;;;55.58;22.65;;;10.80;95.50;;;;;;5060601;28;20175;-82
2021/04/19 11:28:11;;;;;;;47.42;22.52;;;10.80;95.40;;;;;;5061792;28;20199;-82
2021/04/19 11:30:37;;;;;;;49.20;21.98;;;10.90;95.90;;;;;;5097463;23;20223;-85
2021/04/19 11:33:09;;;;;;;49.97;20.90;;;11.00;95.20;;;;;;5098554;28;20566;-85
2021/04/19 11:35:40;;;;;;;51.30;21.95;;;11.00;96.10;;;;;;5098588;28;20232;-85
2021/04/19 11:38:10;;;;;;;51.10;23.13;;;11.10;95.60;;;;;;5098944;28;20228;-85
2021/04/19 11:40:40;;;;;;;55.22;22.35;;;11.10;94.90;;;;;;5098991;28;20626;-85
2021/04/19 11:43:19;;;;;;;46.40;22.45;;;11.10;95.60;;;;;;5098732;28;20557;-85
2021/04/19 11:45:45;;;;;;;50.13;21.15;;;11.20;94.80;;;;;;5098848;28;20262;-85
2021/04/19 11:48:12;;;;;;;52.63;22.38;;;11.30;94.70;;;;;;5098219;28;20701;-85
2021/04/19 11:50:39;;;;;;;39.47;19.38;;;11.30;94.10;;;;;;5098159;28;20224;-83
2021/04/19 11:53:05;;;;;;;45.30;21.05;;;11.40;93.10;;;;;;5098341;28;20282;-85
2021/04/19 11:55:31;;;;;;;46.10;20.67;;;11.50;92.80;;;;;;5097961;28;20574;-85
2021/04/19 11:57:56;;;;;;;47.73;19.87;;;11.50;92.70;;;;;;5098083;28;20179;-84
2021/04/19 12:00:22;;;;;;;43.43;19.73;;;11.60;93.30;;;;;;5097173;28;20186;-84
2021/04/19 12:02:48;;;;;;;46.10;21.40;;;11.70;94.10;;;;;;5097857;28;20444;-85
2021/04/19 12:05:14;;;;;;;48.03;20.60;;;11.70;93.10;;;;;;5097585;28;20416;-84
2021/04/19 12:07:40;;;;;;;44.72;21.60;;;11.70;91.30;;;;;;5096560;28;20202;-85
2021/04/19 12:10:07;;;;;;;40.70;18.90;;;11.70;92.00;;;;;;5097136;28;20163;-85
2021/04/19 12:12:33;;;;;;;41.58;19.85;;;11.80;92.90;;;;;;5096939;28;20285;-85
2021/04/19 12:14:58;;;;;;;40.90;19.07;;;11.80;92.40;;;;;;5097562;28;20199;-85
2021/04/19 12:17:24;;;;;;;38.17;18.50;;;11.90;92.60;;;;;;5097684;28;20175;-85
2021/04/19 12:19:50;;;;;;;44.53;21.17;;;11.90;91.30;;;;;;5097228;28;20175;-85
2021/04/19 12:22:15;;;;;;;40.90;20.40;;;11.90;92.00;;;;;;5096941;28;20413;-86
2021/04/19 12:24:41;;;;;;;39.70;19.50;;;11.90;92.80;;;;;;5096801;28;20173;-85
2021/04/19 12:27:07;;;;;;;41.10;16.80;;;12.00;93.00;;;;;;5096890;28;20445;-85
2021/04/19 12:29:33;;;;;;;34.47;18.07;;;12.00;91.20;;;;;;5096663;28;20191;-85
2021/04/19 12:31:59;;;;;;;36.50;17.13;;;12.00;90.30;;;;;;5096511;28;20496;-86
2021/04/19 12:34:24;;;;;;;37.90;17.60;;;12.00;89.60;;;;;;5096684;28;20425;-85
2021/04/19 12:36:52;;;;;;;32.83;16.43;;;12.10;89.20;;;;;;5096863;28;20439;-86
2021/04/19 12:39:18;;;;;;;42.60;17.25;;;12.20;88.40;;;;;;5096736;28;20413;-86
2021/04/19 12:41:44;;;;;;;36.63;16.80;;;12.10;89.10;;;;;;5096698;28;20270;-85
2021/04/19 12:44:10;;;;;;;41.07;17.70;;;12.20;89.40;;;;;;5097246;28;20222;-85
2021/04/19 12:46:36;;;;;;;40.20;16.87;;;12.10;88.40;;;;;;5096908;28;20467;-85
2021/04/19 12:49:03;;;;;;;36.97;17.15;;;12.10;88.70;;;;;;5080444;28;20928;-86